Flight Track Log - Related Links

Times and Time Zones

All times are in EDT time to prevent confusion due to time zone crossing. See the TAM3909 flight status page for this flight to view local times or setup timezone preferences in your user account.

Time Position Orientation Groundspeed Altitude Reporting Facility
EDT Latitude Longitude Course Direction KTS MPH feet Rate Location/Type
Sun 07:19:12 AM -22.9274 -43.1604 159° South 153 176 400  Level FlightAware ADS-B (SBRJ / SDU)
Sun 07:19:33 AM -22.9387 -43.1496 135° Southeast 154 177 1,600 5,182 Climbing FlightAware ADS-B (SBRJ / SDU)
Sun 07:19:34 AM -22.9481 -43.1390 133° Southeast 169 194 2,300 4,235 Climbing FlightAware ADS-B (SBGL / GIG)
Sun 07:19:50 AM -22.9575 -43.1284 133° Southeast 169 194 2,800  Climbing FlightAware ADS-B (SBGL / GIG)
Sun 07:19:52 AM -22.9491 -43.1378 133° Southeast 171 197 2,300 1,600 Descending FlightAware ADS-B (SBRJ / SDU)
Sun 07:20:05 AM -22.9676 -43.1181 138° Southeast 213 245 3,200 1,500 Climbing FlightAware ADS-B (SBGL / GIG)
Sun 07:20:12 AM -22.9603 -43.1255 136° Southeast 199 229 2,800 3,818 Descending FlightAware ADS-B (SBRJ / SDU)
Sun 07:20:16 AM -22.9763 -43.1105 144° Southeast 213 245 3,900 2,857 Climbing FlightAware ADS-B (SBGL / GIG)
Sun 07:20:33 AM -22.9768 -43.1102 146° Southeast 214 246 3,800 3,750 Descending FlightAware ADS-B (SBRJ / SDU)
Sun 07:20:40 AM -22.9996 -43.1073 198° South 218 251 5,400 7,000 Climbing FlightAware ADS-B (SBGL / GIG)
Sun 07:20:51 AM -23.0075 -43.1120 217° Southwest 223 257 5,900 -3,000 Climbing FlightAware ADS-B (SBGL / GIG)
Sun 07:20:52 AM -22.9924 -43.1057 182° South 217 250 4,800 2,400 Descending FlightAware ADS-B (SBRJ / SDU)
Sun 07:20:56 AM -23.0126 -43.1173 231° Southwest 234 269 6,100 10,000 Climbing FlightAware ADS-B (SBGL / GIG)
Sun 07:21:01 AM -23.0158 -43.1226 242° Southwest 243 280 6,300 2,143 Climbing FlightAware ADS-B (SBGL / GIG)
Sun 07:21:10 AM -23.0191 -43.1326 254° West 256 295 6,600 -1,636 Climbing FlightAware ADS-B (SBGL / GIG)
Sun 07:21:12 AM -23.0132 -43.1182 232° Southwest 236 272 6,000 2,625 Descending FlightAware ADS-B (SBRJ / SDU)
Sun 07:21:26 AM -23.0247 -43.1541 255° West 265 305 7,300 4,385 Climbing FlightAware ADS-B (SBGL / GIG)
Sun 07:21:38 AM -23.0288 -43.1696 256° West 280 322 7,900 3,200 Climbing FlightAware ADS-B (SBGL / GIG)
Sun 07:21:41 AM -23.0297 -43.1731 254° West 282 325 8,100 -375 Climbing FlightAware ADS-B (SBGL / GIG)
Sun 07:21:54 AM -23.0288 -43.1696 254° West 280 322 7,800 3,600 Descending FlightAware ADS-B (SBJR / RIO)
Sun 07:21:56 AM -23.0354 -43.1944 255° West 284 327 9,000 7,412 Climbing FlightAware ADS-B (SBGL / GIG)
Sun 07:22:11 AM -23.0408 -43.2155 255° West 288 331 9,900 316 Climbing FlightAware ADS-B (SBGL / GIG)
Sun 07:22:15 AM -23.0364 -43.1984 254° West 285 328 9,100 2,400 Descending FlightAware ADS-B (SBJR / RIO)
Sun 07:22:41 AM -23.0518 -43.2581 255° West 318 366 11,100 2,923 Climbing FlightAware ADS-B (SBGL / GIG)
Sun 07:22:54 AM -23.0518 -43.2578 254° West 315 362 11,000 2,000 Descending FlightAware ADS-B (SBJR / RIO)
Sun 07:23:11 AM -23.0648 -43.3080 255° West 346 398 12,100 2,250 Climbing FlightAware ADS-B (SBGL / GIG)
Sun 07:23:34 AM -23.0687 -43.3230 254° West 347 399 12,500 3,097 Climbing FlightAware ADS-B (SBJR / RIO)
Sun 07:23:42 AM -23.0782 -43.3593 255° West 352 405 13,700 4,054 Climbing FlightAware ADS-B (SBGL / GIG)
Sun 07:24:11 AM -23.0909 -43.4070 254° West 361 415 15,000 1,500 Climbing FlightAware ADS-B (SBGL / GIG)
Sun 07:24:14 AM -23.0879 -43.3954 253° West 361 415 14,500 3,000 Descending FlightAware ADS-B (SBJR / RIO)
Sun 07:24:41 AM -23.1059 -43.4631 254° West 365 420 16,500 2,700 Climbing FlightAware ADS-B (SBGL / GIG)
Sun 07:24:54 AM -23.1042 -43.4565 253° West 364 419 16,300 2,200 Descending FlightAware ADS-B (SBJR / RIO)
Sun 07:25:11 AM -23.1173 -43.5059 254° West 375 432 17,600 3,150 Climbing FlightAware ADS-B (SBGL / GIG)
Sun 07:25:34 AM -23.1262 -43.5395 254° West 372 428 18,400 3,200 Climbing FlightAware ADS-B (SBJR / RIO)
Sun 07:25:41 AM -23.1344 -43.5707 255° West 373 429 19,200 3,188 Climbing FlightAware ADS-B (SBGL / GIG)
Sun 07:26:06 AM -23.1463 -43.6162 255° West 382 440 20,100 909 Climbing FlightAware ADS-B (SBGL / GIG)
Sun 07:26:14 AM -23.1428 -43.6028 254° West 380 437 19,700 2,308 Descending FlightAware ADS-B (SBJR / RIO)
Sun 07:26:32 AM -23.1593 -43.6658 255° West 384 442 21,100 3,923 Climbing FlightAware ADS-B (SBGL / GIG)
Sun 07:26:40 AM -23.1609 -43.6717 255° West 386 444 21,400 2,057 Climbing FlightAware ADS-B (SBGL / GIG)
Sun 07:27:07 AM -23.1760 -43.7298 255° West 391 450 22,300 1,200 Climbing FlightAware ADS-B (SBGL / GIG)
Sun 07:27:15 AM -23.1723 -43.7157 254° West 389 448 22,100 1,787 Descending FlightAware ADS-B (SBJR / RIO)
Sun 07:27:54 AM -23.1929 -43.7946 254° West 391 450 23,700 3,333 Climbing FlightAware ADS-B (SBJR / RIO)
Sun 07:28:00 AM -23.1959 -43.8065 255° West 391 450 24,600 3,892 Climbing FlightAware ADS-B (SBGL / GIG)
Sun 07:28:31 AM -23.2164 -43.8852 255° West 376 433 26,100 1,941 Climbing FlightAware ADS-B (SBGL / GIG)
Sun 07:28:34 AM -23.2124 -43.8697 254° West 379 436 25,700 2,308 Descending FlightAware ADS-B (SBJR / RIO)
Sun 07:28:57 AM -23.2287 -43.9327 255° West 375 432 27,100 2,400 Climbing FlightAware ADS-B (SBGL / GIG)
Sun 07:29:14 AM -23.2314 -43.9431 254° West 374 430 27,300 1,655 Climbing FlightAware ADS-B (SBJR / RIO)
Sun 07:29:26 AM -23.2424 -43.9857 255° West 367 422 27,900 1,024 Climbing FlightAware ADS-B (SBGL / GIG)
Sun 07:29:55 AM -23.2484 -44.0088 254° West 365 420 28,000 125 Climbing FlightAware ADS-B (SBJR / RIO)
Sun 07:30:14 AM -23.2640 -44.0691 255° West 367 422 28,000  Level FlightAware ADS-B (SBGL / GIG)
Sun 07:30:36 AM -23.2667 -44.0793 254° West 368 423 28,000  Level FlightAware ADS-B (SBJR / RIO)
Sun 07:30:46 AM -23.2786 -44.1259 255° West 373 429 28,000  Level FlightAware ADS-B (SBGL / GIG)
Sun 07:31:15 AM -23.2848 -44.1499 254° West 374 430 28,000  Level FlightAware ADS-B (SBJR / RIO)
Sun 07:31:56 AM -23.3032 -44.2306 256° West 373 429 28,000  Level FlightAware ADS-B (SBJR / RIO)
Sun 07:32:02 AM -23.3109 -44.2661 257° West 373 429 28,000  Level FlightAware ADS-B
Sun 07:32:35 AM -23.3152 -44.2861 256° West 373 429 28,000  Level FlightAware ADS-B (SBJR / RIO)
Sun 07:32:36 AM -23.3231 -44.3218 257° West 373 429 28,000  Level FlightAware ADS-B
Sun 07:33:57 AM -23.3580 -44.4773 257° West 372 428 28,000  Level FlightAware ADS-B (SDAM)
Sun 07:35:10 AM -23.3231 -44.3218 257° West 374 430 28,000  Level FlightAware ADS-B
Sun 07:36:50 AM -23.4286 -44.7940 257° West 374 430 28,000  Level FlightAware ADS-B
Sun 07:37:08 AM -23.4343 -44.8200 257° West 374 430 28,000  Level FlightAware ADS-B
Sun 07:38:19 AM -23.4645 -44.9564 257° West 374 430 28,000  Level FlightAware ADS-B
Sun 07:38:47 AM -23.4731 -44.9961 258° West 373 429 28,000  Level FlightAware ADS-B
Sun 07:39:21 AM -23.4872 -45.0625 258° West 374 430 28,000  Level FlightAware ADS-B
Sun 07:39:49 AM -23.4994 -45.1198 257° West 374 430 28,000  Level FlightAware ADS-B
Sun 07:40:19 AM -23.5109 -45.1732 258° West 374 430 28,000  Level FlightAware ADS-B
Sun 07:40:50 AM -23.5230 -45.2301 258° West 375 432 28,000  Level FlightAware ADS-B
Sun 07:41:20 AM -23.5316 -45.2707 258° West 374 430 28,000  Level FlightAware ADS-B
Sun 07:41:50 AM -23.5470 -45.3434 258° West 374 430 28,000  Level FlightAware ADS-B
Sun 07:42:20 AM -23.5586 -45.3989 258° West 373 429 28,000  Level FlightAware ADS-B
Sun 07:42:50 AM -23.5697 -45.4512 258° West 373 429 28,000  Level FlightAware ADS-B
Sun 07:43:20 AM -23.5819 -45.5084 258° West 373 429 28,000  Level FlightAware ADS-B
Sun 07:43:50 AM -23.5932 -45.5615 258° West 373 429 28,000 -100 Level FlightAware ADS-B
Sun 07:44:20 AM -23.6050 -45.6179 258° West 374 430 27,900 -1,300 Descending FlightAware ADS-B
Sun 07:44:50 AM -23.6165 -45.6732 258° West 377 434 26,700 -2,164 Descending FlightAware ADS-B
Sun 07:45:21 AM -23.6277 -45.7272 258° West 369 425 25,700 -2,100 Descending FlightAware ADS-B
Sun 07:45:50 AM -23.6395 -45.7827 258° West 366 421 24,600 -2,200 Descending FlightAware ADS-B
Sun 07:46:21 AM -23.6508 -45.8365 258° West 363 418 23,500 -2,100 Descending FlightAware ADS-B
Sun 07:46:50 AM -23.6618 -45.8892 258° West 359 413 22,500 -2,136 Descending FlightAware ADS-B
Sun 07:47:20 AM -23.6726 -45.9420 258° West 356 410 21,400 -2,100 Descending FlightAware ADS-B
Sun 07:47:50 AM -23.6835 -45.9946 258° West 353 406 20,400 -1,946 Descending FlightAware ADS-B
Sun 07:47:57 AM -23.6860 -46.0066 257° West 354 407 20,200 -1,935 Descending FlightAware ADS-B
Sun 07:48:21 AM -23.6941 -46.0457 258° West 350 403 19,400 -2,038 Descending FlightAware ADS-B
Sun 07:48:50 AM -23.7049 -46.0981 258° West 346 398 18,400 -1,932 Descending FlightAware ADS-B
Sun 07:49:20 AM -23.7153 -46.1484 258° West 341 392 17,500 -1,886 Descending FlightAware ADS-B
Sun 07:49:25 AM -23.7171 -46.1570 257° West 340 391 17,300 -2,000 Descending FlightAware ADS-B
Sun 07:49:50 AM -23.7258 -46.1987 258° West 337 388 16,500 -1,837 Descending FlightAware ADS-B
Sun 07:50:14 AM -23.7342 -46.2386 257° West 334 384 15,800 -1,800 Descending FlightAware ADS-B
Sun 07:50:20 AM -23.7362 -46.2482 258° West 333 383 15,600 -1,875 Descending FlightAware ADS-B
Sun 07:50:46 AM -23.7450 -46.2905 258° West 330 380 14,800 -1,800 Descending FlightAware ADS-B
Sun 07:50:50 AM -23.7463 -46.2969 258° West 328 377 14,700 -1,714 Descending FlightAware ADS-B
Sun 07:51:21 AM -23.7559 -46.3453 258° West 323 372 13,800 -1,800 Descending FlightAware ADS-B
Sun 07:51:30 AM -23.7590 -46.3605 258° West 323 372 13,500 -1,800 Descending FlightAware ADS-B
Sun 07:51:51 AM -23.7655 -46.3925 258° West 318 366 12,900 -1,765 Descending FlightAware ADS-B
Sun 07:52:04 AM -23.7698 -46.4140 258° West 317 365 12,500 -1,600 Descending FlightAware ADS-B
Sun 07:52:21 AM -23.7751 -46.4401 258° West 314 361 12,100 -1,636 Descending FlightAware ADS-B
Sun 07:52:37 AM -23.7800 -46.4648 258° West 312 359 11,600 -1,655 Descending FlightAware ADS-B
Sun 07:52:50 AM -23.7842 -46.4856 258° West 309 356 11,300 -1,688 Descending FlightAware ADS-B
Sun 07:53:09 AM -23.7890 -46.5098 258° West 307 353 10,700 -1,655 Descending FlightAware ADS-B
Sun 07:53:19 AM -23.7906 -46.5268 274° West 311 358 10,500 -1,091 Descending FlightAware ADS-B
Sun 07:53:20 AM -23.7903 -46.5319 276° West 311 358 10,500 -1,000 Level FlightAware ADS-B
Sun 07:53:31 AM -23.7864 -46.5473 290° West 316 364 10,300 -1,000 Descending FlightAware ADS-B
Sun 07:53:50 AM -23.7750 -46.5765 294° West 316 364 10,000 -882 Descending FlightAware ADS-B
Sun 07:54:05 AM -23.7666 -46.5980 294° West 314 361 9,800 -750 Descending FlightAware ADS-B
Sun 07:54:06 AM -23.7662 -46.5989 293° West 308 354 9,800 -750 Level FlightAware ADS-B
Sun 07:54:21 AM -23.7586 -46.6187 294° West 314 361 9,600 -750 Descending FlightAware ADS-B
Sun 07:54:22 AM -23.7580 -46.6204 293° West 296 341 9,600 -429 Level FlightAware ADS-B
Sun 07:54:35 AM -23.7510 -46.6388 294° West 314 361 9,500 -750 Descending FlightAware ADS-B
Sun 07:54:38 AM -23.7500 -46.6414 293° West 288 331 9,400 -1,600 Descending FlightAware ADS-B
Sun 07:54:50 AM -23.7431 -46.6589 294° West 314 361 9,100 -1,500 Descending FlightAware ADS-B
Sun 07:54:54 AM -23.7419 -46.6620 293° West 286 329 9,000 -1,200 Descending FlightAware ADS-B
Sun 07:55:05 AM -23.7352 -46.6790 294° West 284 327 8,800 -1,263 Descending FlightAware ADS-B
Sun 07:55:13 AM -23.7310 -46.6896 293° West 284 327 8,600 -1,500 Descending FlightAware ADS-B
Sun 07:55:21 AM -23.7272 -46.6994 294° West 282 325 8,400 -1,200 Descending FlightAware ADS-B
Sun 07:55:28 AM -23.7230 -46.7100 293° West 281 323 8,300 -1,286 Descending FlightAware ADS-B
Sun 07:55:35 AM -23.7199 -46.7182 293° West 281 323 8,100 -1,125 Descending FlightAware ADS-B
Sun 07:55:44 AM -23.7158 -46.7287 293° West 281 323 8,000 -1,200 Descending FlightAware ADS-B
Sun 07:55:50 AM -23.7125 -46.7372 293° West 280 322 7,800 -1,200 Descending FlightAware ADS-B
Sun 07:55:59 AM -23.7077 -46.7496 293° West 283 326 7,700 -600 Descending FlightAware ADS-B
Sun 07:56:10 AM -23.7019 -46.7637 298° West 286 329 7,600 -800 Descending FlightAware ADS-B
Sun 07:56:14 AM -23.6988 -46.7692 302° West 284 327 7,500 -1,200 Descending FlightAware ADS-B
Sun 07:56:15 AM -23.6979 -46.7704 307° West 282 325 7,500  Level FlightAware ADS-B
Sun 07:56:20 AM -23.6935 -46.7756 314° West 276 318 7,500  Level FlightAware ADS-B
Sun 07:56:24 AM -23.6906 -46.7782 324° Northwest 269 310 7,500 222 Level FlightAware ADS-B
Sun 07:56:47 AM -23.6671 -46.7942 327° Northwest 241 277 7,600 240 Climbing FlightAware ADS-B
Sun 07:56:49 AM -23.6654 -46.7954 314° West 276 318 7,600  Level FlightAware ADS-B
Sun 07:57:03 AM -23.6519 -46.8053 326° Northwest 237 273 7,600  Level FlightAware ADS-B
Sun 07:57:20 AM -23.6368 -46.8166 325° Northwest 235 270 7,600  Level FlightAware ADS-B
Sun 07:57:38 AM -23.6235 -46.8265 326° Northwest 217 250 7,600  Level FlightAware ADS-B
Sun 07:57:54 AM -23.6081 -46.8377 326° Northwest 213 245 7,600 -194 Level FlightAware ADS-B
Sun 07:58:09 AM -23.5960 -46.8463 327° Northwest 210 242 7,500 -375 Descending FlightAware ADS-B
Sun 07:58:10 AM -23.5952 -46.8469 327° Northwest 209 241 7,500 -1,125 Level FlightAware ADS-B
Sun 07:58:25 AM -23.5827 -46.8558 327° Northwest 209 241 7,200 -1,000 Descending FlightAware ADS-B
Sun 07:58:40 AM -23.5721 -46.8633 328° Northwest 206 237 7,000 -1,125 Descending FlightAware ADS-B
Sun 07:58:41 AM -23.5718 -46.8635 327° Northwest 204 235 6,900 -800 Descending FlightAware ADS-B
Sun 07:58:55 AM -23.5592 -46.8723 328° Northwest 201 231 6,800 -632 Descending FlightAware ADS-B
Sun 07:59:00 AM -23.5547 -46.8745 340° North 195 224 6,700 -600 Descending FlightAware ADS-B
Sun 07:59:05 AM -23.5504 -46.8755 353° North 190 219 6,700 -600 Level FlightAware ADS-B
Sun 07:59:10 AM -23.5461 -46.8751 North 186 214 6,600 -545 Descending FlightAware ADS-B
Sun 07:59:16 AM -23.5420 -46.8736 23° Northeast 179 206 6,600 -600 Level FlightAware ADS-B
Sun 07:59:20 AM -23.5386 -46.8713 36° Northeast 172 198 6,500 -667 Descending FlightAware ADS-B
Sun 07:59:25 AM -23.5358 -46.8682 48° Northeast 168 193 6,500 -600 Level FlightAware ADS-B
Sun 07:59:30 AM -23.5338 -46.8649 58° Northeast 165 190 6,400 -750 Descending FlightAware ADS-B
Sun 07:59:33 AM -23.5335 -46.8643 63° Northeast 163 188 6,400  Level FlightAware ADS-B
Sun 07:59:35 AM -23.5320 -46.8610 63° Northeast 162 186 6,400 -706 Level FlightAware ADS-B
Sun 07:59:50 AM -23.5270 -46.8507 61° Northeast 160 184 6,200 -1,000 Descending FlightAware ADS-B
Sun 07:59:53 AM -23.5259 -46.8486 61° Northeast 160 184 6,100 -1,200 Descending FlightAware ADS-B
Sun 08:00:05 AM -23.5217 -46.8407 59° Northeast 160 184 5,900 -900 Descending FlightAware ADS-B
Sun 08:00:13 AM -23.5196 -46.8369 59° Northeast 159 183 5,800 -800 Descending FlightAware ADS-B
Sun 08:00:20 AM -23.5157 -46.8297 59° Northeast 159 183 5,700 -818 Descending FlightAware ADS-B
Sun 08:00:35 AM -23.5101 -46.8193 59° Northeast 158 182 5,500 -783 Descending FlightAware ADS-B
Sun 08:00:43 AM -23.5073 -46.8140 60° Northeast 157 181 5,400 -300 Descending FlightAware ADS-B
Sun 08:00:55 AM -23.5029 -46.8057 60° Northeast 148 170 5,400  Level FlightAware ADS-B
Sun 08:01:15 AM -23.4962 -46.7931 60° Northeast 145 167 5,400  Level FlightAware ADS-B
Sun 08:01:35 AM -23.4896 -46.7804 60° Northeast 145 167 5,400  Level FlightAware ADS-B
Sun 08:01:55 AM -23.4832 -46.7676 65° Northeast 144 166 5,400 -240 Level FlightAware ADS-B
Sun 08:02:00 AM -23.4825 -46.7637 84° East 146 168 5,300 -667 Descending FlightAware ADS-B
Sun 08:02:04 AM -23.4826 -46.7626 96° East 149 171 5,300  Level FlightAware ADS-B
Sun 08:02:05 AM -23.4829 -46.7605 102° East 148 170 5,300  Level FlightAware ADS-B
Sun 08:02:10 AM -23.4842 -46.7570 118° Southeast 149 171 5,300 -750 Level FlightAware ADS-B
Sun 08:02:13 AM -23.4855 -46.7551 125° Southeast 150 173 5,200 -1,200 Descending FlightAware ADS-B
Sun 08:02:15 AM -23.4865 -46.7538 132° Southeast 151 174 5,200 -750 Level FlightAware ADS-B
Sun 08:02:21 AM -23.4893 -46.7513 143° Southeast 153 176 5,100 -600 Descending FlightAware ADS-B
Sun 08:02:25 AM -23.4923 -46.7492 148° Southeast 153 176 5,100 -750 Level FlightAware ADS-B
Sun 08:02:29 AM -23.4948 -46.7475 149° Southeast 153 176 5,000 -1,125 Descending FlightAware ADS-B
Sun 08:02:41 AM -23.5014 -46.7431 147° Southeast 152 175 4,800 -750 Descending FlightAware ADS-B
Sun 08:02:45 AM -23.5031 -46.7419 147° Southeast 152 175 4,800 -857 Level FlightAware ADS-B
Sun 08:02:55 AM -23.5100 -46.7371 147° Southeast 149 171 4,600 -750 Descending FlightAware ADS-B
Sun 08:03:01 AM -23.5128 -46.7351 147° Southeast 149 171 4,600 -800 Level FlightAware ADS-B
Sun 08:03:10 AM -23.5189 -46.7309 147° Southeast 148 170 4,400 -900 Descending FlightAware ADS-B
Sun 08:03:21 AM -23.5249 -46.7268 148° Southeast 143 165 4,300 -400 Descending FlightAware ADS-B
Sun 08:03:25 AM -23.5275 -46.7251 147° Southeast 140 161 4,300 -947 Level FlightAware ADS-B
Sun 08:03:40 AM -23.5355 -46.7195 146° Southeast 136 157 4,000 -857 Descending FlightAware ADS-B
Sun 08:03:46 AM -23.5387 -46.7173 147° Southeast 135 155 4,000 -375 Level FlightAware ADS-B
Sun 08:03:56 AM -23.5435 -46.7139 147° Southeast 134 154 3,900 -706 Descending FlightAware ADS-B
Sun 08:04:03 AM -23.5469 -46.7116 148° Southeast 131 151 3,800 -857 Descending FlightAware ADS-B
Sun 08:04:10 AM -23.5507 -46.7090 148° Southeast 127 146 3,700 -600 Descending FlightAware ADS-B
Sun 08:04:23 AM -23.5574 -46.7043 147° Southeast 127 146 3,600 -400 Descending FlightAware ADS-B
Sun 08:04:25 AM -23.5585 -46.7037 147° Southeast 126 145 3,600 -800 Level FlightAware ADS-B
Sun 08:04:38 AM -23.5648 -46.6993 148° Southeast 129 148 3,400 -800 Descending FlightAware ADS-B
Sun 08:04:40 AM -23.5658 -46.6987 147° Southeast 128 147 3,400 -333 Level FlightAware ADS-B
Sun 08:04:56 AM -23.5737 -46.6932 147° Southeast 132 152 3,300 -480 Descending FlightAware ADS-B
Sun 08:05:05 AM -23.5769 -46.6910 148° Southeast 133 153 3,200 -857 Descending FlightAware ADS-B
Sun 08:05:10 AM -23.5813 -46.6879 147° Southeast 131 151 3,100 -1,059 Descending FlightAware ADS-B
Sun 08:05:22 AM -23.5867 -46.6842 147° Southeast 132 152 2,900 -800 Descending FlightAware ADS-B
Sun 08:05:25 AM -23.5889 -46.6825 146° Southeast 130 150 2,900 -667 Level FlightAware ADS-B
Sun 08:05:40 AM -23.5968 -46.6771 148° Southeast 130 150 2,700 -581 Descending FlightAware ADS-B
Sun 08:05:56 AM -23.6045 -46.6719 147° Southeast 130 150 2,600 -545 Descending FlightAware ADS-B
Sun 08:06:02 AM -23.6071 -46.6700 147° Southeast 130 150 2,500 -857 Descending FlightAware ADS-B
Sun 08:06:10 AM -23.6119 -46.6668 148° Southeast 131 151 2,400 -783 Descending FlightAware ADS-B
Sun 08:06:25 AM -23.6198 -46.6613 146° Southeast 131 151 2,200 -800 Descending FlightAware ADS-B

Login

Don't have an account? Register now (free) for customized features, flight alerts, and more!